CheckWX is a tool to help pilots better visualize weather data.  It is not intended as a substitute for an official pre-flight weather briefing.

23:28:14 UTC

T20 METAR
Roger M Dreyer Memorial Airport
Gonzales, Texas, USA
Current

33 mins ago

KT20 202255Z AUTO 02013G21KT 10SM BKN019 BKN027 OVC070 09/07 A3041 RMK AO2 T00940065
Observed
Feb-20 @ 22:55 UTC
Wind
  • 020° at 13 KTS
  • Gusting to 21 KTS
Visibility
10 SM
Flight Rules
MVFR
Cloud Levels
  • Broken at 1,900' AGL
  • Broken at 2,700' AGL
  • Overcast at 7,000' AGL
Temperature
C / 48°F
Dewpoint
C / 45°F
Humidity
87%
Altimeter
30.41" Hg
Pressure
1029.82 hPa
Previous

53 mins ago

KT20 202235Z AUTO 02013G20KT 10SM OVC019 09/07 A3041 RMK AO2 T00920065
Observed
Feb-20 @ 22:35 UTC
Wind
  • 020° at 13 KTS
  • Gusting to 20 KTS
Visibility
10 SM
Flight Rules
MVFR
Cloud Levels
  • Overcast at 1,900' AGL
Temperature
C / 48°F
Dewpoint
C / 45°F
Humidity
87%
Altimeter
30.41" Hg
Pressure
1029.82 hPa
Previous

1 hour ago

KT20 202215Z AUTO 02012G20KT 10SM OVC017 09/07 A3040 RMK AO2 T00900069
Observed
Feb-20 @ 22:15 UTC
Wind
  • 020° at 12 KTS
  • Gusting to 20 KTS
Visibility
10 SM
Flight Rules
MVFR
Cloud Levels
  • Overcast at 1,700' AGL
Temperature
C / 48°F
Dewpoint
C / 45°F
Humidity
87%
Altimeter
30.4" Hg
Pressure
1029.42 hPa